Time;durP1;ratioP1;P1;durP2;ratioP2;P2;SDS_P1;SDS_P2;PMS_P1;PMS_P2;Temp;Humidity;BMP_temperature;BMP_pressure;BME280_temperature;BME280_humidity;BME280_pressure;Samples;Min_cycle;Max_cycle;Signal;HPM_P1;HPM_P2
2022/02/03 00:04:19;;;;;;;23.20;5.80;;;3.50;92.10;;;;;;4997567;28;20162;-91
2022/02/03 00:06:56;;;;;;;14.23;4.50;;;3.50;92.20;;;;;;4979452;28;20178;-91
2022/02/03 00:09:53;;;;;;;30.33;4.77;;;3.60;92.20;;;;;;4979432;28;20177;-91
2022/02/03 00:23:08;;;;;;;16.67;3.83;;;3.80;91.80;;;;;;4996953;28;20686;-92
2022/02/03 00:25:42;;;;;;;27.10;5.43;;;3.80;91.80;;;;;;4996345;28;20212;-91
2022/02/03 00:28:17;;;;;;;22.07;5.40;;;3.80;91.80;;;;;;4979272;28;20170;-91
2022/02/03 00:31:04;;;;;;;25.83;4.97;;;3.80;91.90;;;;;;4979398;28;20217;-91
2022/02/03 00:33:37;;;;;;;19.10;4.97;;;3.90;91.70;;;;;;4980238;28;20224;-92
2022/02/03 00:50:09;;;;;;;21.30;4.90;;;4.00;91.60;;;;;;4996823;28;20212;-91
2022/02/03 00:52:36;;;;;;;16.53;4.63;;;3.90;91.50;;;;;;4979729;28;20584;-91
2022/02/03 00:55:04;;;;;;;29.37;6.53;;;3.80;91.40;;;;;;4978714;28;20174;-91
2022/02/03 00:57:50;;;;;;;25.67;5.80;;;3.80;91.40;;;;;;4978607;28;20198;-91
2022/02/03 01:00:17;;;;;;;24.00;5.80;;;3.70;91.40;;;;;;4979377;28;20229;-91
2022/02/03 01:02:51;;;;;;;30.07;5.67;;;3.70;91.40;;;;;;4978826;28;20174;-91
2022/02/03 01:05:17;;;;;;;20.10;5.63;;;3.70;91.40;;;;;;4978737;28;20165;-91
2022/02/03 01:07:46;;;;;;;33.10;6.77;;;3.60;91.40;;;;;;4978504;28;20173;-91
2022/02/03 01:10:17;;;;;;;24.37;5.83;;;3.60;91.50;;;;;;4978674;28;20197;-91
2022/02/03 01:18:19;;;;;;;27.17;7.03;;;3.70;91.50;;;;;;4996011;28;20187;-91
2022/02/03 01:21:58;;;;;;;28.83;6.03;;;3.70;91.60;;;;;;4995271;28;20208;-91
2022/02/03 01:37:18;;;;;;;23.87;6.40;;;3.80;91.20;;;;;;4995588;28;20190;-91
2022/02/03 01:45:48;;;;;;;35.37;11.43;;;3.80;91.10;;;;;;4995488;28;20643;-92
2022/02/03 01:48:36;;;;;;;29.60;8.60;;;4.00;91.00;;;;;;4994611;28;20185;-92
2022/02/03 01:53:47;;;;;;;24.53;7.53;;;4.00;90.70;;;;;;4995560;28;20209;-92
2022/02/03 01:56:19;;;;;;;29.70;7.53;;;3.90;90.70;;;;;;4978906;28;20178;-92
2022/02/03 01:58:53;;;;;;;20.00;6.53;;;3.90;90.80;;;;;;4979904;28;20194;-92
2022/02/03 02:01:26;;;;;;;26.17;6.80;;;3.80;90.90;;;;;;4978159;28;20193;-92
2022/02/03 02:04:00;;;;;;;25.13;7.40;;;3.90;91.00;;;;;;4993922;28;20174;-92
2022/02/03 02:06:35;;;;;;;25.70;6.17;;;3.90;90.90;;;;;;4994373;28;20169;-92
2022/02/03 02:09:08;;;;;;;24.50;5.90;;;4.00;91.00;;;;;;4993705;28;20182;-91
2022/02/03 02:12:04;;;;;;;19.67;5.53;;;4.00;91.10;;;;;;4977401;28;20203;-90
2022/02/03 02:40:43;;;;;;;17.87;6.30;;;4.30;90.90;;;;;;4994369;28;20285;-91
2022/02/03 02:43:31;;;;;;;39.17;7.23;;;4.30;90.90;;;;;;4994038;28;20566;-91
2022/02/03 02:46:18;;;;;;;26.17;6.70;;;4.30;90.80;;;;;;4993108;28;20224;-91
2022/02/03 02:48:55;;;;;;;28.93;7.20;;;4.30;90.80;;;;;;4977177;28;20178;-91
2022/02/03 02:51:31;;;;;;;18.90;6.13;;;4.30;90.80;;;;;;4992683;28;20685;-91
2022/02/03 03:33:18;;;;;;;28.40;7.57;;;4.40;91.10;;;;;;5042935;28;20209;-92
2022/02/03 03:35:49;;;;;;;26.07;7.27;;;4.40;91.30;;;;;;5028405;28;20172;-93
2022/02/03 03:38:31;;;;;;;25.70;6.77;;;4.30;91.30;;;;;;5026960;28;20204;-93
2022/02/03 03:40:58;;;;;;;21.03;6.67;;;4.40;91.50;;;;;;5035622;28;20192;-93
2022/02/03 03:43:40;;;;;;;21.97;6.60;;;4.30;91.60;;;;;;5047082;28;20169;-92
2022/02/03 03:46:21;;;;;;;28.33;7.23;;;4.30;91.80;;;;;;5048503;28;20172;-92
2022/02/03 03:48:57;;;;;;;28.20;7.90;;;4.30;92.00;;;;;;5051930;28;20183;-93
2022/02/03 03:51:28;;;;;;;30.53;8.30;;;4.30;92.10;;;;;;5048566;28;20196;-92
2022/02/03 03:54:03;;;;;;;25.63;7.20;;;4.30;92.20;;;;;;5047638;28;20167;-93
2022/02/03 03:56:43;;;;;;;21.97;7.77;;;4.30;92.30;;;;;;5052094;28;20540;-92
2022/02/03 04:44:05;;;;;;;33.13;12.10;;;4.60;94.10;;;;;;5080327;28;20183;-93
2022/02/03 04:53:49;;;;;;;34.53;13.03;;;4.60;94.30;;;;;;5081026;28;20147;-94
2022/02/03 05:11:54;;;;;;;34.53;14.80;;;4.70;94.80;;;;;;5080379;28;20177;-95
2022/02/03 05:23:43;;;;;;;33.13;16.70;;;4.70;95.10;;;;;;5080295;28;20167;-93
2022/02/03 06:21:51;;;;;;;33.10;19.40;;;5.10;95.80;;;;;;5057652;28;20200;-94
2022/02/03 06:24:48;;;;;;;33.83;21.40;;;5.20;95.80;;;;;;5042287;28;20161;-95
2022/02/03 07:09:08;;;;;;;40.63;22.37;;;5.40;96.10;;;;;;5047119;28;20217;-94
2022/02/03 07:11:38;;;;;;;48.50;22.43;;;5.50;96.10;;;;;;5332824;23;20216;-94
2022/02/03 07:14:06;;;;;;;41.03;21.90;;;5.50;96.10;;;;;;5114598;23;20224;-95
2022/02/03 07:16:45;;;;;;;29.67;15.83;;;5.50;96.10;;;;;;5073883;23;20250;-95
2022/02/03 07:19:14;;;;;;;37.70;21.13;;;5.60;96.10;;;;;;5023254;28;20147;-96
2022/02/03 07:21:41;;;;;;;34.97;19.87;;;5.60;96.10;;;;;;5009828;28;20202;-94
2022/02/03 07:26:47;;;;;;;44.03;22.73;;;5.70;96.10;;;;;;5260277;22;20241;-95
2022/02/03 07:29:15;;;;;;;31.70;14.83;;;5.70;96.10;;;;;;5041787;28;20169;-95
2022/02/03 07:31:41;;;;;;;50.03;25.27;;;5.80;96.10;;;;;;5090241;23;20235;-94
2022/02/03 07:34:11;;;;;;;39.20;19.37;;;5.70;96.10;;;;;;5025857;28;20175;-94
2022/02/03 07:36:38;;;;;;;57.40;26.27;;;5.80;96.20;;;;;;5161598;23;20295;-96
2022/02/03 07:39:06;;;;;;;52.80;25.83;;;5.80;96.20;;;;;;5009075;28;20216;-95
2022/02/03 07:41:36;;;;;;;53.53;24.27;;;5.80;96.20;;;;;;5013651;28;20213;-94
2022/02/03 07:44:02;;;;;;;55.97;27.27;;;5.90;96.20;;;;;;5682762;22;20393;-96
2022/02/03 07:59:23;;;;;;;59.20;28.80;;;6.00;96.20;;;;;;5322953;22;20245;-92
2022/02/03 08:01:52;;;;;;;58.80;24.83;;;6.10;96.20;;;;;;5058189;28;20187;-94
2022/02/03 08:04:26;;;;;;;59.33;26.63;;;6.30;96.30;;;;;;5057063;23;20219;-94
2022/02/03 08:06:52;;;;;;;65.83;28.30;;;6.30;96.30;;;;;;5024566;28;20164;-96
2022/02/03 08:09:25;;;;;;;69.70;27.80;;;6.30;96.30;;;;;;5022967;28;20207;-92
2022/02/03 08:11:53;;;;;;;62.10;27.20;;;6.50;96.30;;;;;;5009605;28;20189;-92
2022/02/03 08:14:30;;;;;;;62.50;27.30;;;6.50;96.30;;;;;;5001118;28;20204;-91
2022/02/03 08:17:02;;;;;;;58.43;25.77;;;6.50;96.30;;;;;;4998204;28;20164;-91
2022/02/03 08:27:38;;;;;;;60.23;26.93;;;6.70;96.30;;;;;;5021822;28;20157;-95
2022/02/03 08:32:47;;;;;;;69.47;27.67;;;6.80;96.30;;;;;;5021562;28;20149;-94
2022/02/03 08:35:33;;;;;;;63.20;26.00;;;6.80;96.30;;;;;;5004779;28;20170;-95
2022/02/03 08:38:06;;;;;;;66.27;25.63;;;6.80;96.30;;;;;;5004682;28;20200;-94
2022/02/03 08:40:59;;;;;;;71.47;28.87;;;6.90;96.30;;;;;;5002870;28;20183;-92
2022/02/03 08:43:25;;;;;;;63.43;24.67;;;7.00;96.30;;;;;;5003645;28;20178;-94
2022/02/03 08:45:51;;;;;;;65.37;26.13;;;7.00;96.30;;;;;;5003965;28;20158;-93
2022/02/03 08:48:17;;;;;;;68.23;27.73;;;7.00;96.20;;;;;;5004171;28;20166;-92
2022/02/03 08:50:43;;;;;;;69.37;28.03;;;7.10;96.20;;;;;;5002831;28;20198;-91
2022/02/03 08:53:18;;;;;;;58.43;24.27;;;7.10;96.20;;;;;;5051101;22;20202;-93
2022/02/03 08:55:55;;;;;;;41.83;19.27;;;7.20;96.20;;;;;;5035118;28;20183;-94
2022/02/03 09:40:55;;;;;;;58.73;26.23;;;7.60;95.90;;;;;;4996048;28;20184;-92
2022/02/03 09:59:56;;;;;;;84.77;34.63;;;7.80;95.70;;;;;;5186617;22;20228;-90
2022/02/03 10:02:25;;;;;;;89.83;38.63;;;7.80;95.70;;;;;;5038075;28;20192;-89
2022/02/03 10:04:55;;;;;;;87.97;39.60;;;7.80;95.60;;;;;;5036879;28;20170;-92
2022/02/03 10:07:25;;;;;;;77.30;33.73;;;7.80;95.60;;;;;;5037853;28;20204;-93
2022/02/03 10:09:57;;;;;;;87.00;35.60;;;7.80;95.60;;;;;;5038317;28;20251;-92
2022/02/03 10:12:36;;;;;;;82.33;36.57;;;7.80;95.60;;;;;;5037729;28;20600;-92
2022/02/03 10:15:03;;;;;;;95.83;40.67;;;7.90;95.60;;;;;;5037600;28;20164;-90
2022/02/03 10:17:34;;;;;;;93.83;41.87;;;7.90;95.50;;;;;;5037620;28;20204;-91
2022/02/03 10:20:02;;;;;;;100.10;42.13;;;7.90;95.50;;;;;;5054540;28;20633;-90
2022/02/03 10:22:29;;;;;;;81.77;35.73;;;7.90;95.50;;;;;;5053795;28;20204;-90
2022/02/03 10:25:10;;;;;;;96.53;42.70;;;7.90;95.50;;;;;;5035645;28;20255;-92
2022/02/03 10:27:39;;;;;;;102.33;42.23;;;8.00;95.50;;;;;;5035802;28;20168;-92
2022/02/03 10:30:22;;;;;;;92.27;42.03;;;8.00;95.50;;;;;;5035646;28;20176;-90
2022/02/03 10:32:48;;;;;;;99.17;44.03;;;8.00;95.50;;;;;;5036299;28;20557;-90
2022/02/03 10:35:19;;;;;;;91.53;42.83;;;8.00;95.50;;;;;;5035452;28;20646;-91
2022/02/03 10:37:49;;;;;;;95.60;42.90;;;8.00;95.50;;;;;;5036404;28;20641;-91
2022/02/03 10:40:49;;;;;;;92.13;42.27;;;8.00;95.50;;;;;;5035515;28;20172;-90
2022/02/03 10:43:54;;;;;;;87.67;40.17;;;8.00;95.50;;;;;;5035411;28;20195;-90
2022/02/03 11:05:16;;;;;;;84.67;37.13;;;8.00;95.50;;;;;;5056437;28;20225;-90
2022/02/03 11:10:34;;;;;;;78.77;34.67;;;8.00;95.40;;;;;;5061066;28;20182;-91
2022/02/03 11:13:00;;;;;;;77.87;37.47;;;8.00;95.40;;;;;;5039794;28;20199;-90
2022/02/03 11:15:28;;;;;;;76.37;36.13;;;8.00;95.40;;;;;;5039610;28;20180;-90
2022/02/03 11:17:57;;;;;;;76.43;35.83;;;8.00;95.40;;;;;;5040012;28;20239;-90
2022/02/03 11:20:25;;;;;;;70.30;34.13;;;8.00;95.40;;;;;;5039986;28;20183;-90
2022/02/03 11:23:01;;;;;;;73.90;36.40;;;8.00;95.40;;;;;;5040667;28;20563;-90
2022/02/03 11:33:38;;;;;;;69.00;33.97;;;7.90;95.30;;;;;;5057221;28;20559;-89
2022/02/03 11:39:36;;;;;;;69.53;31.80;;;7.90;95.20;;;;;;5003011;28;20608;-90
2022/02/03 11:42:24;;;;;;;65.07;31.57;;;7.90;95.20;;;;;;5056335;28;20217;-90
2022/02/03 12:05:07;;;;;;;38.60;22.10;;;7.90;94.30;;;;;;5056893;28;20179;-92
2022/02/03 12:13:51;;;;;;;36.07;20.53;;;7.80;94.00;;;;;;5056150;28;20211;-89
2022/02/03 12:19:25;;;;;;;38.50;23.30;;;7.80;94.10;;;;;;5056123;28;20286;-89
2022/02/03 12:22:24;;;;;;;39.10;23.80;;;7.70;94.10;;;;;;5037801;28;20217;-89
2022/02/03 12:25:30;;;;;;;36.47;23.07;;;7.70;94.10;;;;;;5055697;28;20179;-89
2022/02/03 12:28:52;;;;;;;38.33;23.70;;;7.70;94.10;;;;;;5055370;28;20651;-89
2022/02/03 12:39:13;;;;;;;37.57;20.67;;;7.70;94.30;;;;;;5055648;28;20723;-89
2022/02/03 12:42:03;;;;;;;38.47;22.63;;;7.70;94.40;;;;;;5038561;28;20167;-89
2022/02/03 12:44:30;;;;;;;28.83;18.23;;;7.60;94.40;;;;;;5037703;28;20179;-90
2022/02/03 12:47:02;;;;;;;38.60;23.40;;;7.60;94.50;;;;;;5037595;28;20253;-89
2022/02/03 12:49:30;;;;;;;43.30;23.53;;;7.60;94.50;;;;;;5037522;28;20644;-89
2022/02/03 12:51:56;;;;;;;38.03;23.17;;;7.60;94.60;;;;;;5037282;28;20180;-90
2022/02/03 12:54:22;;;;;;;41.10;23.73;;;7.60;94.60;;;;;;5037467;28;20208;-90
2022/02/03 12:56:47;;;;;;;35.90;22.90;;;7.60;94.70;;;;;;5037101;28;20627;-87
2022/02/03 12:59:16;;;;;;;31.27;20.37;;;7.50;94.70;;;;;;5037170;28;20311;-90
2022/02/03 13:01:44;;;;;;;38.23;23.23;;;7.50;94.70;;;;;;5038217;28;20530;-88
2022/02/03 13:04:16;;;;;;;41.27;22.50;;;7.50;94.70;;;;;;5055109;28;20211;-87
2022/02/03 13:06:52;;;;;;;40.80;22.87;;;7.50;94.70;;;;;;5037401;28;20168;-87
2022/02/03 13:09:27;;;;;;;37.23;22.63;;;7.50;94.80;;;;;;5037019;28;20226;-89
2022/02/03 13:11:56;;;;;;;36.13;23.30;;;7.50;94.80;;;;;;5037471;28;20188;-87
2022/02/03 13:19:58;;;;;;;44.67;24.20;;;7.50;94.60;;;;;;5054894;28;20160;-87
2022/02/03 13:28:10;;;;;;;36.03;21.67;;;7.40;94.40;;;;;;5054314;28;20701;-89
2022/02/03 13:31:02;;;;;;;38.73;22.50;;;7.40;94.40;;;;;;5060284;28;20199;-91
2022/02/03 13:33:39;;;;;;;35.50;23.20;;;7.40;94.40;;;;;;5047229;28;20196;-91
2022/02/03 13:36:12;;;;;;;32.20;19.90;;;7.40;94.30;;;;;;5052659;28;20198;-92
2022/02/03 13:38:55;;;;;;;34.63;22.37;;;7.40;94.20;;;;;;5051202;28;20195;-93
2022/02/03 13:41:25;;;;;;;35.03;21.80;;;7.40;94.10;;;;;;5050088;28;20171;-93
2022/02/03 13:43:51;;;;;;;32.57;20.63;;;7.40;94.00;;;;;;5049509;28;20219;-93
2022/02/03 13:46:30;;;;;;;30.20;20.00;;;7.50;94.00;;;;;;5050686;28;20180;-93
2022/02/03 13:48:57;;;;;;;30.03;19.97;;;7.40;93.90;;;;;;5056114;28;20171;-93
2022/02/03 13:51:31;;;;;;;23.20;17.90;;;7.40;93.80;;;;;;5054480;28;20198;-93
2022/02/03 13:54:11;;;;;;;27.13;19.13;;;7.50;93.80;;;;;;5055784;28;20196;-93
2022/02/03 14:11:09;;;;;;;20.37;15.63;;;7.50;93.50;;;;;;5071879;28;20167;-93
2022/02/03 14:19:39;;;;;;;20.40;14.80;;;7.50;93.40;;;;;;5073637;28;20279;-94
2022/02/03 14:22:02;;;;;;;21.57;14.73;;;7.50;93.40;;;;;;5071391;28;20183;-93
2022/02/03 14:27:22;;;;;;;26.73;16.13;;;7.40;93.20;;;;;;5075857;28;20170;-93
2022/02/03 14:29:55;;;;;;;24.43;16.23;;;7.40;93.30;;;;;;5057114;28;20243;-92
2022/02/03 14:32:38;;;;;;;22.87;16.13;;;7.40;93.20;;;;;;5056201;28;20254;-93
2022/02/03 14:35:06;;;;;;;23.83;15.57;;;7.40;93.10;;;;;;5054920;28;20167;-93
2022/02/03 14:38:00;;;;;;;25.17;16.87;;;7.40;93.00;;;;;;5055943;28;20200;-93
2022/02/03 14:40:39;;;;;;;25.07;15.43;;;7.40;93.00;;;;;;5059021;28;20174;-93
2022/02/03 14:43:06;;;;;;;23.87;16.93;;;7.40;93.10;;;;;;5058950;28;20199;-93
2022/02/03 14:45:32;;;;;;;32.17;18.50;;;7.30;93.10;;;;;;5056230;28;20179;-93
2022/02/03 14:47:57;;;;;;;28.00;18.50;;;7.40;93.10;;;;;;5058725;28;20227;-93
2022/02/03 14:50:23;;;;;;;28.67;16.77;;;7.30;92.90;;;;;;5059629;28;20679;-94
2022/02/03 14:53:01;;;;;;;25.03;18.50;;;7.40;92.80;;;;;;5056828;28;20199;-93
2022/02/03 15:00:45;;;;;;;22.23;15.67;;;7.30;92.90;;;;;;5065721;28;20191;-90
2022/02/03 15:03:10;;;;;;;29.30;15.80;;;7.30;93.00;;;;;;5035376;28;20203;-90
2022/02/03 15:05:38;;;;;;;24.67;18.33;;;7.30;93.00;;;;;;5035240;28;20309;-89
2022/02/03 15:08:07;;;;;;;27.03;18.97;;;7.30;93.00;;;;;;5052979;28;20176;-89
2022/02/03 15:15:52;;;;;;;24.67;17.80;;;7.30;93.00;;;;;;5053489;28;20171;-90
2022/02/03 15:18:18;;;;;;;23.77;16.27;;;7.30;92.90;;;;;;5035073;28;20208;-90
2022/02/03 15:20:43;;;;;;;26.57;15.63;;;7.30;92.90;;;;;;5035091;28;20198;-89
2022/02/03 15:23:09;;;;;;;22.17;14.10;;;7.30;93.00;;;;;;5052722;28;20240;-90
2022/02/03 15:25:35;;;;;;;28.00;17.77;;;7.30;93.00;;;;;;5035860;28;20176;-90
2022/02/03 15:28:01;;;;;;;26.50;16.00;;;7.30;93.00;;;;;;5035156;28;20187;-89
2022/02/03 15:30:26;;;;;;;24.67;16.30;;;7.30;93.00;;;;;;5035048;28;20179;-89
2022/02/03 15:32:52;;;;;;;26.87;17.37;;;7.30;93.00;;;;;;5034940;28;20265;-89
2022/02/03 15:35:28;;;;;;;26.37;16.80;;;7.30;93.10;;;;;;5035001;28;20210;-90
2022/02/03 15:37:54;;;;;;;23.13;17.57;;;7.30;93.10;;;;;;5035437;28;20249;-93
2022/02/03 15:43:03;;;;;;;28.53;15.73;;;7.20;93.20;;;;;;5837542;22;20244;-91
2022/02/03 15:45:35;;;;;;;26.93;18.23;;;7.20;93.20;;;;;;5022219;28;20152;-92
2022/02/03 15:48:10;;;;;;;26.00;18.37;;;7.20;93.30;;;;;;5033070;28;20598;-90
2022/02/03 15:50:58;;;;;;;24.03;17.97;;;7.10;93.30;;;;;;5022849;28;20231;-92
2022/02/03 15:56:32;;;;;;;23.43;16.90;;;7.10;93.30;;;;;;5059176;28;20298;-90
2022/02/03 16:17:52;;;;;;;22.93;17.90;;;7.00;93.50;;;;;;5078621;28;20192;-92
2022/02/03 16:20:34;;;;;;;23.50;15.80;;;7.00;93.50;;;;;;5061578;28;20159;-92
2022/02/03 16:23:20;;;;;;;27.03;17.93;;;7.00;93.50;;;;;;5061909;28;20176;-91
2022/02/03 16:50:58;;;;;;;25.60;18.07;;;6.90;93.70;;;;;;5065867;28;20218;-91
2022/02/03 16:53:24;;;;;;;21.83;15.17;;;6.90;93.80;;;;;;5049480;28;20234;-91
2022/02/03 16:55:50;;;;;;;22.37;16.50;;;6.90;93.70;;;;;;5047606;28;20191;-91
2022/02/03 16:58:15;;;;;;;26.90;18.57;;;6.90;93.50;;;;;;5043927;28;20227;-91
2022/02/03 17:00:46;;;;;;;25.13;17.57;;;6.90;93.50;;;;;;5045676;28;20270;-92
2022/02/03 17:03:11;;;;;;;18.30;13.83;;;6.90;93.50;;;;;;5057078;28;20179;-92
2022/02/03 17:05:38;;;;;;;21.07;16.13;;;6.90;93.40;;;;;;5055831;28;20230;-93
2022/02/03 17:08:07;;;;;;;22.63;18.53;;;6.90;93.30;;;;;;5054685;28;20188;-93
2022/02/03 17:10:36;;;;;;;23.37;17.40;;;6.90;93.30;;;;;;5054259;28;20200;-93
2022/02/03 17:13:14;;;;;;;24.27;18.10;;;6.90;93.30;;;;;;5055874;28;20184;-93
2022/02/03 17:15:44;;;;;;;22.67;15.70;;;6.90;93.30;;;;;;5054129;28;20175;-92
2022/02/03 17:18:13;;;;;;;19.90;15.33;;;6.90;93.40;;;;;;5052587;28;20204;-93
2022/02/03 17:20:41;;;;;;;22.67;17.20;;;6.90;93.30;;;;;;5042379;28;20199;-91
2022/02/03 17:23:09;;;;;;;22.07;17.70;;;6.90;93.20;;;;;;5040506;28;20182;-91
2022/02/03 17:25:50;;;;;;;25.23;18.27;;;6.90;93.20;;;;;;5041967;28;20755;-92
2022/02/03 17:28:32;;;;;;;24.03;16.63;;;6.90;93.20;;;;;;5041804;28;20221;-92
2022/02/03 17:31:20;;;;;;;24.93;18.20;;;6.90;93.30;;;;;;5058126;28;20191;-92
2022/02/03 17:45:33;;;;;;;20.30;16.77;;;6.90;93.20;;;;;;5056790;28;20698;-92
2022/02/03 17:54:12;;;;;;;26.07;18.30;;;6.80;93.40;;;;;;5059447;28;20546;-92
2022/02/03 18:05:12;;;;;;;25.57;17.67;;;6.80;93.40;;;;;;5060816;28;20167;-92
2022/02/03 18:09:50;;;;;;;24.43;20.67;;;6.90;93.40;;;;;;5060848;28;20218;-91
2022/02/03 18:18:01;;;;;;;25.50;20.63;;;6.80;93.30;;;;;;5059905;28;20238;-91
2022/02/03 18:31:25;;;;;;;25.60;20.50;;;6.80;93.20;;;;;;5060627;28;20191;-92
2022/02/03 18:34:06;;;;;;;24.13;21.07;;;6.80;93.20;;;;;;5059797;28;20191;-91
2022/02/03 18:50:01;;;;;;;29.07;20.67;;;6.80;93.00;;;;;;5060707;28;20172;-92
2022/02/03 18:52:40;;;;;;;23.93;19.30;;;6.70;93.00;;;;;;5043412;28;20737;-92
2022/02/03 18:55:26;;;;;;;22.33;17.93;;;6.80;93.10;;;;;;5062395;28;20175;-92
2022/02/03 18:58:04;;;;;;;25.83;21.20;;;6.80;93.10;;;;;;5045802;28;20686;-92
2022/02/03 19:03:19;;;;;;;26.80;21.80;;;6.80;93.10;;;;;;5060358;28;20243;-92
2022/02/03 19:14:36;;;;;;;31.93;23.73;;;6.80;93.00;;;;;;5059907;28;20175;-91
2022/02/03 20:08:11;;;;;;;31.37;24.33;;;6.70;93.30;;;;;;5061982;28;20155;-91
2022/02/03 20:10:43;;;;;;;30.20;23.80;;;6.70;93.20;;;;;;5044370;28;20233;-91
2022/02/03 20:13:09;;;;;;;29.83;23.67;;;6.70;93.20;;;;;;5045849;28;20217;-91
2022/02/03 20:15:38;;;;;;;31.60;24.13;;;6.70;93.20;;;;;;5043558;28;20179;-91
2022/02/03 20:18:05;;;;;;;34.30;25.73;;;6.70;93.20;;;;;;5059663;28;20203;-91
2022/02/03 20:20:34;;;;;;;34.47;24.30;;;6.70;93.20;;;;;;5060876;28;20219;-91
2022/02/03 20:23:02;;;;;;;31.30;24.83;;;6.70;93.20;;;;;;5043166;28;20232;-92
2022/02/03 20:25:31;;;;;;;25.80;18.23;;;6.70;93.20;;;;;;5042728;28;20184;-92
2022/02/03 20:27:57;;;;;;;33.80;25.57;;;6.60;93.20;;;;;;5043968;28;20198;-92
2022/02/03 20:30:23;;;;;;;30.77;24.70;;;6.70;93.20;;;;;;5042220;28;20179;-92
2022/02/03 20:32:49;;;;;;;32.23;24.50;;;6.70;93.20;;;;;;5059954;28;20224;-92
2022/02/03 20:35:20;;;;;;;31.87;23.87;;;6.70;93.20;;;;;;5043860;28;20183;-92
2022/02/03 20:37:46;;;;;;;30.13;20.70;;;6.70;93.20;;;;;;5042952;28;20200;-91
2022/02/03 20:40:15;;;;;;;29.90;24.87;;;6.70;93.10;;;;;;5043925;28;20187;-91
2022/02/03 20:42:41;;;;;;;34.23;25.70;;;6.70;93.20;;;;;;5044557;28;20253;-91
2022/02/03 20:45:08;;;;;;;30.17;22.70;;;6.70;93.20;;;;;;5043269;28;20195;-91
2022/02/03 20:47:33;;;;;;;32.90;23.00;;;6.70;93.20;;;;;;5040753;28;20179;-91
2022/02/03 20:50:00;;;;;;;32.70;23.30;;;6.70;93.20;;;;;;5043115;28;20644;-92
2022/02/03 20:52:26;;;;;;;34.63;23.83;;;6.60;93.10;;;;;;5043676;28;20191;-92
2022/02/03 20:54:52;;;;;;;33.30;24.27;;;6.60;93.20;;;;;;5043196;28;20179;-91
2022/02/03 20:57:18;;;;;;;27.17;20.23;;;6.60;93.20;;;;;;5044310;28;20176;-91
2022/02/03 21:02:39;;;;;;;31.67;24.87;;;6.60;93.30;;;;;;5061137;28;20202;-90
2022/02/03 21:05:07;;;;;;;31.20;24.00;;;6.60;93.30;;;;;;5040892;28;20176;-91
2022/02/03 21:07:33;;;;;;;34.23;25.67;;;6.60;93.30;;;;;;5040855;28;20692;-92
2022/02/03 21:10:02;;;;;;;37.10;25.80;;;6.60;93.20;;;;;;5043086;28;20180;-91
2022/02/03 21:12:29;;;;;;;34.30;25.67;;;6.60;93.20;;;;;;5043033;28;20196;-92
2022/02/03 21:14:56;;;;;;;36.97;27.83;;;6.60;93.30;;;;;;5042967;28;20179;-92
2022/02/03 21:17:27;;;;;;;32.73;23.33;;;6.60;93.30;;;;;;5043944;28;20182;-91
2022/02/03 21:19:53;;;;;;;33.97;25.00;;;6.60;93.30;;;;;;5043346;28;20175;-91
2022/02/03 21:22:20;;;;;;;35.83;25.70;;;6.60;93.30;;;;;;5060116;28;20670;-91
2022/02/03 21:24:46;;;;;;;43.07;28.43;;;6.60;93.30;;;;;;5043071;28;20179;-91
2022/02/03 21:27:17;;;;;;;36.77;27.37;;;6.50;93.30;;;;;;5042815;28;20184;-92
2022/02/03 21:29:44;;;;;;;36.93;25.43;;;6.50;93.30;;;;;;5044057;28;20171;-92
2022/02/03 21:32:10;;;;;;;40.63;28.17;;;6.50;93.30;;;;;;5043605;28;20191;-91
2022/02/03 21:34:38;;;;;;;41.10;25.97;;;6.60;93.30;;;;;;5042337;28;20633;-91
2022/02/03 21:37:03;;;;;;;37.67;25.10;;;6.50;93.30;;;;;;5060960;28;20204;-91
2022/02/03 21:39:29;;;;;;;34.00;26.37;;;6.50;93.30;;;;;;5042832;28;20238;-91
2022/02/03 21:41:55;;;;;;;38.80;25.10;;;6.50;93.40;;;;;;5043489;28;20219;-91
2022/02/03 21:44:27;;;;;;;34.83;24.33;;;6.50;93.30;;;;;;5042611;28;20202;-91
2022/02/03 21:46:56;;;;;;;35.30;24.40;;;6.60;93.30;;;;;;5041731;28;20175;-91
2022/02/03 21:49:24;;;;;;;31.17;21.40;;;6.60;93.30;;;;;;5041899;28;20233;-92
2022/02/03 21:51:51;;;;;;;36.23;24.63;;;6.60;93.20;;;;;;5042911;28;20213;-91
2022/02/03 21:54:17;;;;;;;38.10;25.93;;;6.60;93.20;;;;;;5043207;28;20199;-91
2022/02/03 21:56:44;;;;;;;41.40;26.07;;;6.60;93.20;;;;;;5042618;28;20183;-91
2022/02/03 21:59:15;;;;;;;30.60;20.40;;;6.50;93.20;;;;;;5041720;28;20229;-91
2022/02/03 22:01:43;;;;;;;33.20;23.53;;;6.50;93.20;;;;;;5042997;28;20199;-91
2022/02/03 22:04:09;;;;;;;33.87;23.17;;;6.60;93.20;;;;;;5041590;28;20176;-91
2022/02/03 22:06:34;;;;;;;35.63;24.13;;;6.60;93.20;;;;;;5040597;28;20229;-91
2022/02/03 22:09:00;;;;;;;34.40;23.97;;;6.60;93.10;;;;;;5044610;28;20185;-91
2022/02/03 22:11:32;;;;;;;35.13;24.93;;;6.70;93.10;;;;;;5046843;28;20293;-92
2022/02/03 22:14:04;;;;;;;32.30;22.57;;;6.70;93.00;;;;;;5044472;28;20179;-92
2022/02/03 22:16:33;;;;;;;27.83;20.37;;;6.60;93.00;;;;;;5046317;28;20179;-88
2022/02/03 22:19:00;;;;;;;35.70;26.43;;;6.70;93.00;;;;;;5035753;28;20211;-88
2022/02/03 22:21:36;;;;;;;36.93;26.00;;;6.70;93.00;;;;;;5056476;28;20245;-90
2022/02/03 22:46:14;;;;;;;38.67;26.57;;;6.60;93.30;;;;;;5056023;28;20654;-89
2022/02/03 22:48:39;;;;;;;35.80;24.37;;;6.60;93.20;;;;;;5037675;28;20175;-91
2022/02/03 22:51:06;;;;;;;35.00;25.13;;;6.60;93.20;;;;;;5038665;28;20245;-91
2022/02/03 22:53:35;;;;;;;39.17;27.07;;;6.50;93.30;;;;;;5038374;28;20265;-91
2022/02/03 22:56:03;;;;;;;34.87;25.40;;;6.60;93.20;;;;;;5038423;28;20180;-91
2022/02/03 23:01:09;;;;;;;35.97;24.60;;;6.50;93.20;;;;;;5062782;28;20198;-91
2022/02/03 23:03:36;;;;;;;37.60;26.53;;;6.50;93.20;;;;;;5045926;28;20204;-90
2022/02/03 23:06:03;;;;;;;34.40;23.23;;;6.60;93.10;;;;;;5063267;28;20255;-91
2022/02/03 23:14:03;;;;;;;36.07;24.63;;;6.60;93.00;;;;;;5063582;28;20184;-91
2022/02/03 23:21:42;;;;;;;35.03;23.80;;;6.60;92.90;;;;;;5064930;28;20195;-91
2022/02/03 23:24:08;;;;;;;38.23;24.37;;;6.60;92.90;;;;;;5046981;28;20178;-91
2022/02/03 23:26:34;;;;;;;29.67;22.27;;;6.60;92.80;;;;;;5047257;28;20175;-92
2022/02/03 23:29:06;;;;;;;37.20;26.03;;;6.60;92.80;;;;;;5045996;28;20572;-91
2022/02/03 23:31:47;;;;;;;35.03;23.30;;;6.60;92.80;;;;;;5062125;28;20245;-91
2022/02/03 23:34:13;;;;;;;42.03;24.90;;;6.60;92.80;;;;;;5045622;28;20266;-90
2022/02/03 23:36:39;;;;;;;36.23;23.57;;;6.50;92.80;;;;;;5045181;28;20242;-91
2022/02/03 23:47:14;;;;;;;31.23;21.60;;;6.60;92.70;;;;;;5065003;28;20164;-91
